Time;durP1;ratioP1;P1;durP2;ratioP2;P2;SDS_P1;SDS_P2;PMS_P1;PMS_P2;Temp;Humidity;BMP_temperature;BMP_pressure;BME280_temperature;BME280_humidity;BME280_pressure;Samples;Min_cycle;Max_cycle;Signal;HPM_P1;HPM_P2
2022/03/07 00:00:27;;;;;;;44.40;27.27;;;;;;;3.83;72.66;102374.81;4997796;28;20270;-68
2022/03/07 00:02:53;;;;;;;33.07;24.37;;;;;;;3.67;72.09;102379.00;4981339;28;20191;-68
2022/03/07 00:05:18;;;;;;;34.97;23.40;;;;;;;3.32;73.16;102385.31;4997068;28;20227;-68
2022/03/07 00:07:44;;;;;;;30.80;22.30;;;;;;;3.41;73.46;102389.31;4995476;28;20231;-67
2022/03/07 00:10:09;;;;;;;36.33;25.77;;;;;;;3.51;73.05;102389.13;4998245;28;20427;-68
2022/03/07 00:12:34;;;;;;;38.50;26.40;;;;;;;3.32;73.49;102389.59;5001852;28;20465;-68
2022/03/07 00:15:00;;;;;;;41.03;25.50;;;;;;;3.26;73.36;102389.19;5002104;28;20179;-68
2022/03/07 00:17:25;;;;;;;33.33;23.80;;;;;;;3.24;73.62;102398.53;5001616;28;20180;-67
2022/03/07 00:19:50;;;;;;;36.50;26.10;;;;;;;3.19;73.92;102395.63;5002283;28;20168;-67
2022/03/07 00:22:16;;;;;;;39.30;27.00;;;;;;;3.29;73.81;102402.28;5001888;28;20433;-68
2022/03/07 00:24:41;;;;;;;34.47;25.50;;;;;;;3.24;73.24;102399.41;5000413;28;20556;-68
2022/03/07 00:27:06;;;;;;;43.10;28.50;;;;;;;3.39;73.46;102404.66;4983544;28;20199;-69
2022/03/07 00:29:32;;;;;;;40.70;28.50;;;;;;;3.46;72.57;102408.56;4983434;28;20454;-69
2022/03/07 00:31:57;;;;;;;39.67;28.03;;;;;;;3.40;72.77;102408.13;4981545;28;20176;-68
2022/03/07 00:34:23;;;;;;;39.97;27.60;;;;;;;3.23;72.91;102407.91;4982446;28;20186;-68
2022/03/07 00:36:48;;;;;;;38.30;26.80;;;;;;;3.44;72.73;102413.59;4982163;28;20594;-67
2022/03/07 00:39:13;;;;;;;36.80;26.53;;;;;;;3.28;72.68;102409.13;4981835;28;20204;-69
2022/03/07 00:41:39;;;;;;;32.40;23.83;;;;;;;3.45;72.92;102414.50;4982666;28;20231;-70
2022/03/07 00:44:04;;;;;;;32.87;24.30;;;;;;;3.14;72.93;102402.16;4980711;28;20418;-68
2022/03/07 00:46:29;;;;;;;36.80;25.47;;;;;;;3.26;73.43;102404.66;4981424;28;20263;-67
2022/03/07 00:48:55;;;;;;;34.10;25.00;;;;;;;3.09;73.42;102399.28;4981941;28;20186;-69
2022/03/07 00:51:20;;;;;;;33.77;24.50;;;;;;;3.02;74.36;102407.41;4981460;28;20185;-68
2022/03/07 00:53:46;;;;;;;35.40;26.03;;;;;;;2.90;74.54;102410.03;4980843;28;20219;-69
2022/03/07 00:56:11;;;;;;;33.27;25.00;;;;;;;3.05;74.16;102414.44;4982116;28;20518;-68
2022/03/07 00:58:37;;;;;;;37.53;27.17;;;;;;;3.29;73.62;102408.34;4981370;28;20430;-68
2022/03/07 01:01:03;;;;;;;39.37;26.83;;;;;;;2.92;74.13;102418.72;4981387;28;20247;-68
2022/03/07 01:03:28;;;;;;;33.40;24.43;;;;;;;3.18;73.44;102414.44;4982034;28;20207;-67
2022/03/07 01:05:53;;;;;;;36.40;25.83;;;;;;;3.08;73.75;102407.78;4981665;28;20233;-69
2022/03/07 01:08:19;;;;;;;35.97;26.10;;;;;;;2.80;74.75;102410.19;4991776;28;20224;-69
2022/03/07 01:10:45;;;;;;;39.40;27.87;;;;;;;2.72;74.82;102407.09;4984514;28;20180;-68
2022/03/07 01:13:10;;;;;;;36.60;26.90;;;;;;;2.74;74.62;102412.34;5000657;28;20479;-68
2022/03/07 01:15:36;;;;;;;37.50;26.07;;;;;;;2.95;73.92;102412.91;5001273;28;20419;-68
2022/03/07 01:18:02;;;;;;;40.03;27.47;;;;;;;2.92;74.14;102416.16;5002397;28;20175;-68
2022/03/07 01:20:27;;;;;;;39.00;28.10;;;;;;;2.73;74.64;102418.28;5000665;28;20263;-68
2022/03/07 01:22:53;;;;;;;36.50;26.10;;;;;;;2.27;75.47;102421.13;5000169;28;20451;-68
2022/03/07 01:25:18;;;;;;;36.13;26.90;;;;;;;2.62;75.81;102418.44;5000956;28;20187;-68
2022/03/07 01:27:43;;;;;;;35.47;26.37;;;;;;;2.57;75.51;102414.66;5000322;28;20179;-69
2022/03/07 01:30:09;;;;;;;40.77;27.70;;;;;;;2.63;75.45;102412.50;5000521;28;20241;-68
2022/03/07 01:32:35;;;;;;;40.50;26.87;;;;;;;2.82;74.45;102416.34;5000945;28;20196;-68
2022/03/07 01:35:00;;;;;;;42.70;28.57;;;;;;;2.68;74.24;102415.41;5000405;28;20176;-68
2022/03/07 01:37:25;;;;;;;40.27;28.60;;;;;;;2.52;75.23;102423.75;5000278;28;20207;-68
2022/03/07 01:39:51;;;;;;;38.23;26.70;;;;;;;2.73;74.06;102414.00;5000842;28;20597;-68
2022/03/07 01:42:16;;;;;;;38.90;26.30;;;;;;;2.45;74.25;102422.41;5000188;28;20175;-67
2022/03/07 01:44:42;;;;;;;40.60;28.50;;;;;;;2.36;75.28;102425.22;5000217;28;20192;-67
2022/03/07 01:47:07;;;;;;;41.20;27.53;;;;;;;2.49;75.03;102421.84;5000303;28;20183;-67
2022/03/07 01:49:32;;;;;;;41.90;29.53;;;;;;;2.13;76.28;102420.16;4983261;28;20176;-68
2022/03/07 01:51:58;;;;;;;47.60;29.70;;;;;;;2.16;76.42;102423.81;5000088;28;20443;-68
2022/03/07 01:54:24;;;;;;;49.90;29.70;;;;;;;1.87;77.60;102419.19;5000714;28;20199;-68
2022/03/07 01:56:51;;;;;;;45.13;30.83;;;;;;;2.22;77.50;102415.66;5000130;28;20175;-68
2022/03/07 01:59:19;;;;;;;43.33;30.30;;;;;;;1.89;77.53;102411.56;4999730;28;20469;-67
2022/03/07 02:01:45;;;;;;;44.90;29.77;;;;;;;2.20;76.75;102414.66;5000236;28;20470;-68
2022/03/07 02:04:10;;;;;;;43.27;29.13;;;;;;;2.10;76.81;102415.69;4999672;28;20497;-69
2022/03/07 02:06:38;;;;;;;49.10;30.40;;;;;;;2.52;76.03;102408.28;4999707;28;20488;-67
2022/03/07 02:09:04;;;;;;;43.30;29.53;;;;;;;2.18;75.54;102403.38;4999669;28;20322;-68
2022/03/07 02:11:29;;;;;;;41.37;28.07;;;;;;;2.16;75.72;102408.38;4999945;28;20422;-68
2022/03/07 02:13:55;;;;;;;42.87;27.70;;;;;;;2.35;76.04;102408.03;5000062;28;20886;-67
2022/03/07 02:16:20;;;;;;;48.53;28.70;;;;;;;2.19;75.79;102407.69;4999591;28;20206;-68
2022/03/07 02:18:47;;;;;;;43.30;26.73;;;;;;;2.06;76.02;102408.53;4999604;28;20441;-69
2022/03/07 02:21:14;;;;;;;43.57;29.17;;;;;;;2.38;75.65;102396.13;4999855;28;20176;-67
2022/03/07 02:23:40;;;;;;;46.23;29.10;;;;;;;2.38;75.52;102391.88;4999680;28;20415;-69
2022/03/07 02:26:23;;;;;;;39.63;28.40;;;;;;;2.26;74.80;102394.50;4982728;28;20825;-69
2022/03/07 02:28:49;;;;;;;50.43;29.40;;;;;;;2.19;75.17;102387.13;4999306;28;20415;-69
2022/03/07 02:31:20;;;;;;;44.50;28.40;;;;;;;2.24;75.30;102396.06;4999514;28;20433;-67
2022/03/07 02:33:45;;;;;;;38.10;27.33;;;;;;;2.25;75.21;102390.13;4999560;28;20214;-68
2022/03/07 02:36:11;;;;;;;44.70;29.23;;;;;;;2.40;74.20;102382.59;4999940;28;20427;-68
2022/03/07 02:38:36;;;;;;;35.00;26.03;;;;;;;2.42;74.54;102375.88;5000742;28;20183;-69
2022/03/07 02:41:02;;;;;;;44.07;28.57;;;;;;;2.32;74.40;102383.75;5001219;28;20204;-67
2022/03/07 02:43:27;;;;;;;45.40;28.80;;;;;;;2.59;74.20;102382.19;5001339;28;20198;-67
2022/03/07 02:45:53;;;;;;;43.67;28.30;;;;;;;2.31;74.10;102390.59;5001607;28;20259;-68
2022/03/07 02:48:18;;;;;;;38.80;26.50;;;;;;;2.29;74.66;102389.56;5002112;28;20163;-68
2022/03/07 02:50:46;;;;;;;40.20;28.00;;;;;;;2.25;74.38;102390.13;4984253;28;20180;-69
2022/03/07 02:53:12;;;;;;;42.23;27.50;;;;;;;2.13;75.04;102390.16;5000657;28;20207;-69
2022/03/07 02:55:37;;;;;;;40.33;28.67;;;;;;;2.47;74.63;102379.63;4968409;28;20422;-67
2022/03/07 02:58:03;;;;;;;40.50;26.73;;;;;;;2.35;74.17;102384.84;5000788;28;20407;-68
2022/03/07 03:00:29;;;;;;;41.73;28.27;;;;;;;2.30;74.17;102380.16;5001408;28;20234;-69
2022/03/07 03:02:54;;;;;;;37.77;26.10;;;;;;;2.14;74.88;102389.38;5001396;28;20281;-67
2022/03/07 03:05:20;;;;;;;40.67;28.80;;;;;;;2.17;74.54;102392.16;4999220;28;20172;-67
2022/03/07 03:07:47;;;;;;;39.60;28.30;;;;;;;2.16;75.17;102390.38;4998387;28;20238;-67
2022/03/07 03:10:13;;;;;;;38.50;27.53;;;;;;;2.22;74.72;102384.78;4998887;28;20172;-68
2022/03/07 03:12:38;;;;;;;39.60;29.77;;;;;;;2.18;74.84;102391.38;4982260;28;20454;-67
2022/03/07 03:15:04;;;;;;;40.20;28.93;;;;;;;2.26;74.13;102396.16;4999368;28;20667;-69
2022/03/07 03:17:29;;;;;;;41.40;27.87;;;;;;;2.07;74.84;102387.16;4998789;28;20171;-68
2022/03/07 03:19:54;;;;;;;42.77;27.30;;;;;;;2.18;75.22;102382.78;4998904;28;20537;-68
2022/03/07 03:22:19;;;;;;;35.83;27.00;;;;;;;2.09;75.09;102389.84;4998870;28;20211;-68
2022/03/07 03:24:46;;;;;;;40.77;27.73;;;;;;;2.01;75.40;102399.59;4999277;28;20171;-69
2022/03/07 03:27:11;;;;;;;36.57;25.90;;;;;;;2.15;74.78;102395.41;4998584;28;20191;-68
2022/03/07 03:29:36;;;;;;;42.50;27.40;;;;;;;2.22;74.91;102399.31;4998807;28;20419;-68
2022/03/07 03:32:02;;;;;;;35.80;26.23;;;;;;;2.15;74.63;102396.31;4999349;28;20449;-69
2022/03/07 03:34:27;;;;;;;36.97;27.07;;;;;;;2.11;74.11;102393.41;4998613;28;20222;-70
2022/03/07 03:36:52;;;;;;;36.67;27.27;;;;;;;1.87;75.17;102407.97;4998674;28;20256;-68
2022/03/07 03:39:18;;;;;;;37.07;28.03;;;;;;;1.56;75.66;102410.94;4998930;28;20175;-67
2022/03/07 03:41:43;;;;;;;35.37;26.50;;;;;;;1.78;76.39;102409.09;4998517;28;20179;-67
2022/03/07 03:44:08;;;;;;;38.63;26.60;;;;;;;1.81;74.91;102409.34;4998459;28;20510;-67
2022/03/07 03:46:34;;;;;;;38.13;26.27;;;;;;;1.77;74.98;102417.63;5001525;28;20203;-67
2022/03/07 03:48:59;;;;;;;39.20;26.50;;;;;;;1.81;74.82;102414.50;5002234;28;20207;-69
2022/03/07 03:51:25;;;;;;;38.23;25.37;;;;;;;1.97;74.70;102413.91;5002280;28;20569;-67
2022/03/07 03:53:50;;;;;;;33.27;25.17;;;;;;;1.70;74.47;102414.50;5002643;28;20195;-69
2022/03/07 03:56:16;;;;;;;38.10;25.33;;;;;;;1.85;75.14;102421.66;5002211;28;20191;-68
2022/03/07 03:58:42;;;;;;;39.33;25.40;;;;;;;1.97;74.81;102415.59;5002038;28;20438;-68
2022/03/07 04:01:07;;;;;;;36.30;26.00;;;;;;;1.90;74.79;102413.38;5002474;28;20214;-69
2022/03/07 04:03:32;;;;;;;37.10;25.30;;;;;;;2.13;74.10;102402.16;5002149;28;20459;-68
2022/03/07 04:05:57;;;;;;;36.60;25.83;;;;;;;2.00;73.47;102415.78;4985184;28;20171;-68
2022/03/07 04:08:23;;;;;;;34.40;24.87;;;;;;;2.11;74.25;102414.91;5001623;28;20235;-68
2022/03/07 04:10:48;;;;;;;33.17;25.63;;;;;;;2.03;74.51;102410.91;5001929;28;20192;-67
2022/03/07 04:13:13;;;;;;;34.93;25.17;;;;;;;1.93;74.65;102414.47;5002179;28;20203;-68
2022/03/07 04:15:40;;;;;;;38.30;27.03;;;;;;;1.66;74.49;102416.84;5001857;28;20199;-68
2022/03/07 04:18:06;;;;;;;34.67;26.37;;;;;;;1.92;74.11;102422.06;5001859;28;20237;-68
2022/03/07 04:20:32;;;;;;;38.90;25.90;;;;;;;1.93;73.67;102424.75;5002188;28;20419;-69
2022/03/07 04:22:58;;;;;;;33.87;25.10;;;;;;;1.96;74.59;102425.00;5001738;28;20509;-68
2022/03/07 04:25:24;;;;;;;35.60;27.00;;;;;;;1.75;74.08;102424.31;5001667;28;20488;-68
2022/03/07 04:27:49;;;;;;;34.00;25.43;;;;;;;1.81;74.21;102418.72;4984911;28;20215;-68
2022/03/07 04:30:14;;;;;;;39.83;26.00;;;;;;;1.91;74.05;102426.34;5001596;28;20182;-67
2022/03/07 04:32:40;;;;;;;38.17;26.63;;;;;;;2.05;74.03;102423.84;5001371;28;20214;-68
2022/03/07 04:35:07;;;;;;;39.67;27.60;;;;;;;2.01;74.50;102422.72;5002047;28;20258;-67
2022/03/07 04:37:34;;;;;;;33.37;24.80;;;;;;;1.77;74.18;102424.44;5001095;28;20435;-66
2022/03/07 04:39:59;;;;;;;36.07;27.00;;;;;;;1.81;74.71;102421.28;5001222;28;20433;-68
2022/03/07 04:42:25;;;;;;;42.80;27.27;;;;;;;1.71;74.61;102424.00;5001595;28;20415;-67
2022/03/07 04:44:50;;;;;;;36.77;27.37;;;;;;;1.85;74.06;102410.44;5001417;28;20183;-67
2022/03/07 04:47:15;;;;;;;35.90;25.90;;;;;;;1.83;74.50;102410.34;5001149;28;20179;-68
2022/03/07 04:49:41;;;;;;;32.90;25.40;;;;;;;2.00;73.92;102409.00;5001630;28;20182;-68
2022/03/07 04:52:06;;;;;;;38.03;27.40;;;;;;;1.93;73.32;102413.56;5001166;28;20176;-68
2022/03/07 04:54:31;;;;;;;36.83;25.37;;;;;;;1.77;73.76;102411.56;5001152;28;20186;-67
2022/03/07 04:56:57;;;;;;;41.60;28.60;;;;;;;1.73;74.54;102412.13;5001040;28;20172;-68
2022/03/07 04:59:22;;;;;;;47.93;28.03;;;;;;;1.57;75.44;102413.59;5000847;28;20180;-68
2022/03/07 05:01:47;;;;;;;35.70;26.00;;;;;;;1.34;75.79;102425.63;5001032;28;20180;-67
2022/03/07 05:04:13;;;;;;;38.50;27.90;;;;;;;1.61;75.91;102418.19;5001804;28;20176;-70
2022/03/07 05:06:38;;;;;;;39.73;27.33;;;;;;;1.59;74.59;102422.31;5001002;28;20176;-67
2022/03/07 05:09:03;;;;;;;33.80;25.87;;;;;;;1.62;74.79;102422.50;5000586;28;20226;-68
2022/03/07 05:11:29;;;;;;;35.17;26.00;;;;;;;1.89;74.40;102422.75;5002239;28;20266;-68
2022/03/07 05:13:54;;;;;;;36.90;25.93;;;;;;;1.82;73.54;102425.66;5000619;28;20211;-67
2022/03/07 05:16:19;;;;;;;36.07;26.07;;;;;;;1.96;72.95;102425.00;5000683;28;20184;-69
2022/03/07 05:18:45;;;;;;;34.73;25.53;;;;;;;1.90;72.98;102424.53;5001087;28;20164;-67
2022/03/07 05:21:10;;;;;;;33.63;25.40;;;;;;;1.58;73.89;102419.63;5000758;28;20500;-67
2022/03/07 05:23:36;;;;;;;33.10;25.67;;;;;;;1.48;74.57;102433.47;5000522;28;20175;-67
2022/03/07 05:26:01;;;;;;;34.73;24.63;;;;;;;1.39;74.91;102427.66;5001105;28;20179;-67
2022/03/07 05:28:26;;;;;;;35.13;25.03;;;;;;;1.58;74.25;102429.91;4983304;28;20187;-67
2022/03/07 05:30:52;;;;;;;35.30;24.67;;;;;;;1.67;73.22;102436.59;5000347;28;20530;-68
2022/03/07 05:33:17;;;;;;;32.10;23.67;;;;;;;1.43;74.55;102435.69;5000586;28;20199;-67
2022/03/07 05:35:42;;;;;;;32.37;24.07;;;;;;;1.55;74.31;102446.00;5000404;28;20195;-68
2022/03/07 05:38:10;;;;;;;30.87;23.00;;;;;;;1.74;73.84;102440.53;5000092;28;20475;-68
2022/03/07 05:40:35;;;;;;;33.77;23.30;;;;;;;1.87;73.25;102433.69;5000970;28;20183;-69
2022/03/07 05:43:01;;;;;;;29.00;22.40;;;;;;;1.52;73.41;102443.22;5000184;28;20422;-68
2022/03/07 05:45:27;;;;;;;34.13;23.50;;;;;;;1.40;74.08;102447.44;5000086;28;20451;-68
2022/03/07 05:47:52;;;;;;;29.97;22.50;;;;;;;1.73;73.84;102448.13;5000473;28;20218;-67
2022/03/07 05:50:18;;;;;;;32.33;23.13;;;;;;;1.80;73.22;102445.22;5000086;28;20426;-67
2022/03/07 05:52:43;;;;;;;31.40;24.73;;;;;;;1.74;72.80;102447.34;4999862;28;20203;-69
2022/03/07 05:55:09;;;;;;;32.53;23.90;;;;;;;1.64;73.37;102440.66;5000345;28;20168;-67
2022/03/07 05:57:34;;;;;;;28.67;22.43;;;;;;;1.90;72.33;102446.81;4999957;28;20175;-68
2022/03/07 06:00:00;;;;;;;28.70;23.23;;;;;;;1.65;72.89;102450.13;4999862;28;20190;-67
2022/03/07 06:02:25;;;;;;;32.57;24.67;;;;;;;1.81;73.02;102449.59;5000241;28;20172;-68
2022/03/07 06:04:50;;;;;;;33.50;23.70;;;;;;;1.86;72.06;102440.53;4999691;28;20270;-67
2022/03/07 06:07:16;;;;;;;27.97;22.17;;;;;;;1.66;72.79;102445.13;4999386;28;20190;-67
2022/03/07 06:09:41;;;;;;;32.67;24.37;;;;;;;1.84;72.68;102445.56;4983028;28;20172;-68
2022/03/07 06:12:07;;;;;;;32.70;24.70;;;;;;;1.94;71.89;102446.25;4999479;28;20172;-66
2022/03/07 06:14:32;;;;;;;37.40;26.30;;;;;;;1.99;72.00;102438.06;4999583;28;20467;-68
2022/03/07 06:16:57;;;;;;;34.93;25.27;;;;;;;1.85;71.33;102441.31;4983266;28;20651;-68
2022/03/07 06:19:23;;;;;;;32.47;24.63;;;;;;;1.91;72.04;102441.75;4999183;28;20499;-67
2022/03/07 06:21:48;;;;;;;35.50;25.70;;;;;;;1.89;72.01;102460.44;4999355;28;20175;-67
2022/03/07 06:24:13;;;;;;;32.77;24.27;;;;;;;1.90;72.05;102457.09;5000045;28;20211;-68
2022/03/07 06:26:39;;;;;;;14.80;10.47;;;;;;;9.89;68.07;102429.25;4998576;28;20262;-59
2022/03/07 06:29:05;;;;;;;32.20;24.73;;;;;;;4.72;61.55;102444.91;4999101;28;20191;-68
2022/03/07 06:31:31;;;;;;;25.43;21.17;;;;;;;3.28;65.30;102452.06;4999551;28;20179;-66
2022/03/07 06:33:57;;;;;;;33.27;21.10;;;;;;;2.40;68.05;102457.22;4981989;28;20474;-67
2022/03/07 06:36:22;;;;;;;25.63;22.20;;;;;;;2.88;70.77;102450.22;4999058;28;20187;-65
2022/03/07 06:38:47;;;;;;;29.17;21.97;;;;;;;2.65;69.50;102449.56;4999452;28;20415;-66
2022/03/07 06:41:13;;;;;;;26.70;21.07;;;;;;;2.35;70.19;102445.72;4999266;28;20176;-65
2022/03/07 06:43:39;;;;;;;29.20;21.27;;;;;;;2.69;69.34;102440.34;4982276;28;20541;-66
2022/03/07 06:46:04;;;;;;;24.83;21.33;;;;;;;2.32;70.00;102446.38;4999418;28;20175;-66
2022/03/07 06:48:30;;;;;;;24.20;21.20;;;;;;;2.51;71.06;102450.28;4998947;28;20419;-66
2022/03/07 06:50:55;;;;;;;26.87;20.33;;;;;;;2.32;70.93;102451.53;4999026;28;20568;-68
2022/03/07 06:53:20;;;;;;;31.93;21.70;;;;;;;2.29;70.96;102453.03;4999129;28;20254;-67
2022/03/07 06:55:46;;;;;;;27.83;21.40;;;;;;;2.31;70.64;102442.06;4999226;28;20179;-67
2022/03/07 06:58:11;;;;;;;31.57;20.90;;;;;;;2.47;70.35;102444.00;4998933;28;20526;-68
2022/03/07 07:00:36;;;;;;;27.97;20.87;;;;;;;2.30;70.86;102440.25;4999383;28;20596;-67
2022/03/07 07:03:02;;;;;;;24.67;19.77;;;;;;;2.66;70.58;102435.88;4998775;28;20229;-67
2022/03/07 07:05:27;;;;;;;23.90;18.80;;;;;;;4.63;65.58;102423.66;4998952;28;20187;-68
2022/03/07 07:07:52;;;;;;;21.57;17.57;;;;;;;5.98;60.72;102419.44;4998475;28;20235;-68
2022/03/07 07:10:21;;;;;;;24.00;17.00;;;;;;;6.75;57.18;102417.47;4998834;28;20262;-68
2022/03/07 07:12:47;;;;;;;20.80;15.03;;;;;;;7.26;54.86;102414.91;4998101;28;20195;-68
2022/03/07 07:15:13;;;;;;;17.40;15.20;;;;;;;7.81;53.80;102413.25;4998619;28;20470;-68
2022/03/07 07:17:38;;;;;;;15.30;13.83;;;;;;;8.75;50.98;102414.97;4981695;28;20454;-68
2022/03/07 07:20:05;;;;;;;15.30;13.70;;;;;;;9.15;49.57;102423.63;4999890;28;20187;-67
2022/03/07 07:22:30;;;;;;;14.40;13.00;;;;;;;8.56;49.95;102418.47;5005024;28;20184;-67
2022/03/07 07:24:55;;;;;;;16.20;13.83;;;;;;;9.94;48.23;102412.09;5005097;28;20444;-69
2022/03/07 07:27:21;;;;;;;15.30;13.90;;;;;;;9.05;48.18;102412.84;5005661;28;20174;-66
2022/03/07 07:29:46;;;;;;;16.40;13.50;;;;;;;10.19;45.74;102407.81;5004840;28;20179;-66
2022/03/07 07:32:11;;;;;;;15.50;13.40;;;;;;;9.27;48.05;102411.16;5005053;28;20202;-67
2022/03/07 07:34:37;;;;;;;14.30;13.00;;;;;;;9.16;47.75;102418.50;5005487;28;20442;-67
2022/03/07 07:37:02;;;;;;;15.57;13.90;;;;;;;9.62;48.05;102411.72;5005276;28;20179;-67
2022/03/07 07:39:28;;;;;;;14.63;13.17;;;;;;;9.47;47.26;102418.88;5004994;28;20422;-68
2022/03/07 07:41:53;;;;;;;13.90;12.70;;;;;;;8.91;47.89;102417.41;5005147;28;20230;-68
2022/03/07 07:44:18;;;;;;;17.17;13.23;;;;;;;9.26;47.46;102424.97;5004877;28;20171;-68
2022/03/07 07:46:44;;;;;;;14.10;12.67;;;;;;;9.30;47.12;102428.59;5004950;28;20186;-67
2022/03/07 07:49:10;;;;;;;14.50;13.10;;;;;;;9.17;46.55;102429.78;5005027;28;20537;-68
2022/03/07 07:51:36;;;;;;;15.43;14.00;;;;;;;9.86;46.49;102424.78;5004840;28;20179;-68
2022/03/07 07:54:01;;;;;;;14.13;12.47;;;;;;;10.37;45.36;102428.53;5004934;28;20461;-70
2022/03/07 07:56:27;;;;;;;14.77;13.37;;;;;;;10.10;44.87;102430.09;5005257;28;20179;-70
2022/03/07 07:58:53;;;;;;;15.23;13.73;;;;;;;9.59;46.60;102420.28;5004751;28;20207;-70
2022/03/07 08:01:18;;;;;;;15.07;13.77;;;;;;;9.90;45.90;102426.72;5004724;28;20172;-70
2022/03/07 08:03:43;;;;;;;15.67;13.17;;;;;;;10.67;45.26;102425.28;5005168;28;20163;-71
2022/03/07 08:06:08;;;;;;;14.53;13.13;;;;;;;9.56;46.85;102434.88;5004599;28;20183;-71
2022/03/07 08:08:34;;;;;;;15.27;13.90;;;;;;;10.41;45.21;102433.91;5004541;28;20583;-70
2022/03/07 08:10:59;;;;;;;20.73;18.50;;;;;;;11.17;44.98;102430.50;5005075;28;20468;-68
2022/03/07 08:13:24;;;;;;;17.10;15.40;;;;;;;10.98;43.60;102435.09;5004587;28;20214;-69
2022/03/07 08:15:50;;;;;;;17.97;14.10;;;;;;;11.70;43.49;102434.00;5004827;28;20187;-69
2022/03/07 08:18:16;;;;;;;12.77;11.43;;;;;;;11.75;41.43;102437.66;5004866;28;20182;-69
2022/03/07 08:20:42;;;;;;;12.37;11.23;;;;;;;10.98;43.53;102437.69;4989510;28;20187;-69
2022/03/07 08:23:07;;;;;;;16.30;12.63;;;;;;;11.87;41.61;102425.84;4985196;28;20408;-69
2022/03/07 08:25:33;;;;;;;17.40;12.10;;;;;;;11.87;42.41;102434.56;4985630;28;20518;-70
2022/03/07 08:27:59;;;;;;;17.43;12.30;;;;;;;12.41;40.83;102425.75;4985034;28;20258;-69
2022/03/07 08:30:27;;;;;;;13.90;12.60;;;;;;;12.75;40.55;102418.88;4985291;28;20172;-69
2022/03/07 08:32:52;;;;;;;13.27;11.80;;;;;;;11.93;42.79;102421.69;4983206;28;20451;-70
2022/03/07 08:35:18;;;;;;;12.57;11.37;;;;;;;12.14;41.98;102425.84;4991608;28;20832;-69
2022/03/07 08:37:45;;;;;;;12.60;10.67;;;;;;;11.86;42.04;102427.53;5001091;28;20529;-69
2022/03/07 08:40:13;;;;;;;12.20;11.20;;;;;;;12.10;41.65;102431.81;5001648;28;20164;-70
2022/03/07 08:42:39;;;;;;;12.20;11.00;;;;;;;12.82;40.49;102426.91;5001325;28;20518;-69
2022/03/07 08:45:06;;;;;;;12.53;11.33;;;;;;;12.74;40.84;102430.16;5001243;28;20416;-69
2022/03/07 08:47:32;;;;;;;11.67;10.67;;;;;;;13.96;38.64;102425.44;5001500;28;20244;-70
2022/03/07 08:49:57;;;;;;;12.63;11.43;;;;;;;12.23;41.29;102427.81;5001037;28;20422;-71
2022/03/07 08:52:23;;;;;;;12.70;10.80;;;;;;;13.52;39.01;102433.13;5000936;28;20182;-69
2022/03/07 08:54:48;;;;;;;10.50;9.50;;;;;;;13.55;38.70;102438.44;5001746;28;20258;-67
2022/03/07 08:57:14;;;;;;;10.53;9.63;;;;;;;13.24;38.59;102439.34;4984043;28;20288;-68
2022/03/07 08:59:39;;;;;;;11.20;10.20;;;;;;;13.70;38.78;102444.91;4999550;28;20183;-69
2022/03/07 09:02:05;;;;;;;10.67;9.77;;;;;;;13.57;38.18;102435.84;4999375;28;20326;-71
2022/03/07 09:04:31;;;;;;;11.57;10.47;;;;;;;14.30;37.62;102434.03;4992092;28;20202;-70
2022/03/07 09:06:56;;;;;;;10.53;9.57;;;;;;;13.12;38.96;102434.69;4981442;28;20184;-69
2022/03/07 09:09:21;;;;;;;10.23;9.23;;;;;;;14.44;36.62;102433.44;5000803;28;20261;-70
2022/03/07 09:11:47;;;;;;;10.17;9.27;;;;;;;15.03;34.41;102422.34;5000728;28;20198;-70
2022/03/07 09:14:13;;;;;;;10.30;9.40;;;;;;;14.91;36.55;102422.13;5000535;28;20195;-70
2022/03/07 09:16:39;;;;;;;9.70;8.80;;;;;;;15.31;35.79;102428.97;5000051;28;20454;-68
2022/03/07 09:19:04;;;;;;;9.90;9.00;;;;;;;15.22;34.11;102430.56;5000288;28;20179;-68
2022/03/07 09:21:29;;;;;;;8.90;8.10;;;;;;;14.59;34.15;102431.13;5001263;28;20176;-69
2022/03/07 09:23:55;;;;;;;11.93;8.63;;;;;;;15.38;34.36;102432.59;5020697;28;20167;-70
2022/03/07 09:26:20;;;;;;;10.43;9.33;;;;;;;15.21;35.15;102431.41;5007901;28;20187;-69
2022/03/07 09:28:46;;;;;;;11.70;10.60;;;;;;;15.80;33.89;102425.41;5006386;28;20190;-69
2022/03/07 09:31:11;;;;;;;9.50;8.70;;;;;;;16.11;31.95;102407.44;5020260;28;20194;-68
2022/03/07 09:33:38;;;;;;;8.93;8.13;;;;;;;13.77;36.02;102428.47;5007107;28;20218;-69
2022/03/07 09:36:03;;;;;;;8.00;7.30;;;;;;;12.22;37.36;102442.63;5000243;28;20194;-69
2022/03/07 09:38:29;;;;;;;8.60;7.70;;;;;;;13.44;35.35;102437.28;5000496;28;20407;-70
2022/03/07 09:40:55;;;;;;;9.20;7.90;;;;;;;15.10;34.78;102436.47;5000216;28;20251;-70
2022/03/07 09:43:21;;;;;;;11.10;7.80;;;;;;;13.00;36.71;102440.47;4999698;28;20212;-68
2022/03/07 09:45:47;;;;;;;9.37;7.43;;;;;;;14.40;34.98;102439.47;5000657;28;20411;-68
2022/03/07 09:48:13;;;;;;;7.60;6.90;;;;;;;15.50;33.42;102431.91;4999794;28;20800;-68
2022/03/07 09:50:40;;;;;;;8.20;7.37;;;;;;;15.04;32.74;102434.63;5000135;28;20237;-68
2022/03/07 09:53:07;;;;;;;7.60;6.90;;;;;;;14.82;32.94;102436.84;5000317;28;20211;-68
2022/03/07 09:55:33;;;;;;;7.30;6.67;;;;;;;14.51;32.05;102434.47;4982907;28;20438;-68
2022/03/07 09:57:58;;;;;;;7.43;6.87;;;;;;;11.22;38.25;102455.06;4999916;28;20443;-69
2022/03/07 10:00:24;;;;;;;7.03;6.43;;;;;;;10.77;38.41;102451.75;4983199;28;20180;-70
2022/03/07 10:02:54;;;;;;;7.27;6.67;;;;;;;12.32;36.16;102435.06;4999775;28;20542;-71
2022/03/07 10:05:20;;;;;;;7.70;6.80;;;;;;;14.64;33.50;102428.63;4999670;28;20250;-70
2022/03/07 10:07:45;;;;;;;7.60;6.80;;;;;;;14.57;32.02;102429.31;4999710;28;20589;-70
2022/03/07 10:10:11;;;;;;;7.47;6.13;;;;;;;15.11;32.10;102431.28;4999834;28;20184;-72
2022/03/07 10:12:46;;;;;;;6.70;6.10;;;;;;;16.39;29.16;102418.31;4999731;28;20175;-69
2022/03/07 10:15:17;;;;;;;6.00;5.40;;;;;;;14.45;30.20;102429.94;4999502;28;20433;-67
2022/03/07 10:17:50;;;;;;;6.30;5.70;;;;;;;16.16;28.83;102424.16;4999385;28;20411;-69
2022/03/07 10:20:19;;;;;;;5.00;4.60;;;;;;;16.50;27.03;102420.19;4999518;28;20502;-69
2022/03/07 10:22:46;;;;;;;5.50;5.10;;;;;;;16.25;27.22;102416.41;4967133;28;20430;-70
2022/03/07 10:25:12;;;;;;;6.03;5.43;;;;;;;16.05;27.36;102426.66;4979940;28;20790;-69
2022/03/07 10:27:40;;;;;;;5.13;4.63;;;;;;;15.52;26.90;102434.56;4981288;28;20510;-69
2022/03/07 10:30:13;;;;;;;4.97;4.57;;;;;;;15.00;27.73;102435.44;4996586;28;20179;-69
2022/03/07 10:32:39;;;;;;;6.83;4.70;;;;;;;16.66;25.91;102415.13;4995685;28;20541;-69
2022/03/07 10:35:06;;;;;;;4.80;4.50;;;;;;;14.68;27.17;102433.09;4998782;28;20868;-69
2022/03/07 10:37:36;;;;;;;5.80;5.00;;;;;;;16.43;26.72;102428.91;4999421;28;20416;-69
2022/03/07 10:40:02;;;;;;;4.67;4.27;;;;;;;14.81;27.27;102434.19;4998913;28;20422;-71
2022/03/07 10:42:27;;;;;;;4.63;4.17;;;;;;;12.19;30.38;102449.50;4995725;28;20480;-71
2022/03/07 10:45:02;;;;;;;5.47;4.57;;;;;;;13.32;30.38;102438.69;4998273;28;20442;-70
2022/03/07 10:47:29;;;;;;;5.33;4.43;;;;;;;14.90;27.79;102431.75;4991873;28;20227;-69
2022/03/07 10:49:59;;;;;;;4.77;4.37;;;;;;;13.54;28.42;102435.78;4998580;28;20462;-69
2022/03/07 10:52:34;;;;;;;7.30;4.47;;;;;;;14.23;28.44;102439.09;4999058;28;20400;-71
2022/03/07 10:54:59;;;;;;;4.23;3.83;;;;;;;13.20;29.69;102440.13;4978750;28;20461;-70
2022/03/07 10:57:24;;;;;;;7.63;4.27;;;;;;;16.52;25.80;102428.16;4980046;28;20438;-71
2022/03/07 10:59:50;;;;;;;6.10;4.50;;;;;;;16.55;25.49;102427.28;4998506;28;20442;-72
2022/03/07 11:02:17;;;;;;;4.80;4.30;;;;;;;15.08;26.26;102433.81;4998434;28;20460;-70
2022/03/07 11:04:45;;;;;;;5.10;4.40;;;;;;;15.28;26.43;102436.81;4982163;28;20155;-69
2022/03/07 11:07:12;;;;;;;4.37;4.07;;;;;;;17.13;23.95;102422.66;4997970;28;20419;-69
2022/03/07 11:09:38;;;;;;;5.47;5.00;;;;;;;16.08;24.59;102416.16;4998661;28;20442;-68